MSSS/SAL METAR and TAF weather

Enter ICAO airport designator
Station Type Date Time Source
MSSS METAR 2019/02/20 16:50 UTC NOAA

MSSS 201650Z 15003KT 9999 SCT033 28/18 Q1015 A2999


Station Type Date Time Source
MSSS Decoded METAR 2019/02/20 16:50 UTC NOAA

San Salvador / Ilopango, El Salvador (MSSS) 13-42N 089-07W 621M
Feb 20, 2019 - 11:50 AM EST / 2019.02.20 1650 UTC
Wind: from the SSE (150 degrees) at 3 MPH (3 KT):0
Visibility: greater than 7 mile(s):0
Sky conditions: partly cloudy
Temperature: 82 F (28 C)
Dew Point: 64 F (18 C)
Relative Humidity: 54%
Pressure (altimeter): 29.99 in. Hg (1015 hPa)
ob: MSSS 201650Z 15003KT 9999 SCT033 28/18 Q1015 A2999
cycle: 17

Station Type Date Time Source
MSSS TAF 2019/02/20 18:43 UTC NOAA

TAF MSSS 201525Z 2018/2118 18010KT 9999 SCT033 FEW040CB TX30/2020Z TN20/2112Z
FM210000 9999 SCT047
FM210500 34003KT CAVOK


Example: see airport list